地図

経路データ

SID SEASON NUMBER BASIN SUBBASIN NAME ISO_TIME NATURE LAT LON WMO_WIND WMO_PRES WMO_AGENCY TRACK_TYPE DIST2LAND LANDFALL IFLAG USA_AGENCY USA_ATCF_ID USA_LAT USA_LON USA_RECORD USA_STATUS USA_WIND USA_PRES USA_SSHS USA_R34_NE USA_R34_SE USA_R34_SW USA_R34_NW USA_R50_NE USA_R50_SE USA_R50_SW USA_R50_NW USA_R64_NE USA_R64_SE USA_R64_SW USA_R64_NW USA_POCI USA_ROCI USA_RMW USA_EYE TOKYO_LAT TOKYO_LON TOKYO_GRADE TOKYO_WIND TOKYO_PRES TOKYO_R50_DIR TOKYO_R50_LONG TOKYO_R50_SHORT TOKYO_R30_DIR TOKYO_R30_LONG TOKYO_R30_SHORT TOKYO_LAND CMA_LAT CMA_LON CMA_CAT CMA_WIND CMA_PRES HKO_LAT HKO_LON HKO_CAT HKO_WIND HKO_PRES NEWDELHI_LAT NEWDELHI_LON NEWDELHI_GRADE NEWDELHI_WIND NEWDELHI_PRES NEWDELHI_CI NEWDELHI_DP NEWDELHI_POCI REUNION_LAT REUNION_LON REUNION_TYPE REUNION_WIND REUNION_PRES REUNION_TNUM REUNION_CI REUNION_RMW REUNION_R34_NE REUNION_R34_SE REUNION_R34_SW REUNION_R34_NW REUNION_R50_NE REUNION_R50_SE REUNION_R50_SW REUNION_R50_NW REUNION_R64_NE REUNION_R64_SE REUNION_R64_SW REUNION_R64_NW BOM_LAT BOM_LON BOM_TYPE BOM_WIND BOM_PRES BOM_TNUM BOM_CI BOM_RMW BOM_R34_NE BOM_R34_SE BOM_R34_SW BOM_R34_NW BOM_R50_NE BOM_R50_SE BOM_R50_SW BOM_R50_NW BOM_R64_NE BOM_R64_SE BOM_R64_SW BOM_R64_NW BOM_ROCI BOM_POCI BOM_EYE BOM_POS_METHOD BOM_PRES_METHOD NADI_LAT NADI_LON NADI_CAT NADI_WIND NADI_PRES WELLINGTON_LAT WELLINGTON_LON WELLINGTON_WIND WELLINGTON_PRES DS824_LAT DS824_LON DS824_STAGE DS824_WIND DS824_PRES TD9636_LAT TD9636_LON TD9636_STAGE TD9636_WIND TD9636_PRES TD9635_LAT TD9635_LON TD9635_WIND TD9635_PRES TD9635_ROCI NEUMANN_LAT NEUMANN_LON NEUMANN_CLASS NEUMANN_WIND NEUMANN_PRES MLC_LAT MLC_LON MLC_CLASS MLC_WIND MLC_PRES USA_GUST BOM_GUST BOM_GUST_PER REUNION_GUST REUNION_GUST_PER USA_SEAHGT USA_SEARAD_NE USA_SEARAD_SE USA_SEARAD_SW USA_SEARAD_NW STORM_SPEED STORM_DIR
1932293N14096 1932 66 NI BB NOT_NAMED 1932-10-19 00:00:00 TS 13.8000 96.4000 main 181 181 _________O____ -1 13.8000 96.4000 TC 30 5 276
1932293N14096 1932 66 NI BB NOT_NAMED 1932-10-19 03:00:00 TS 13.8268 96.1333 main 209 204 _________PO___ -1 13.8401 96.0000 TC 31 13.8000 96.4000 1 6 278
1932293N14096 1932 66 NI BB NOT_NAMED 1932-10-19 06:00:00 TS 13.8909 95.7527 main 204 190 _________OP___ -1 13.9000 95.6000 TC 32 13.8773 95.9817 1 8 281
1932293N14096 1932 66 NI BB NOT_NAMED 1932-10-19 09:00:00 TS 13.9757 95.3588 main 190 179 _________PP___ -1 13.9924 95.2000 TC 33 13.9534 95.5705 1 8 283
1932293N14096 1932 66 NI BB NOT_NAMED 1932-10-19 12:00:00 TS 14.0639 94.9871 main 179 179 _________OP___ -1 14.1000 94.8000 TC 34 14.0278 95.1741 1 8 283
1932293N14096 1932 66 NI BB NOT_NAMED 1932-10-19 15:00:00 TS 14.1500 94.5963 main 184 173 _________PO___ -1 14.2000 94.3925 TC 36 14.1000 94.8000 2 8 283
1932293N14096 1932 66 NI BB NOT_NAMED 1932-10-19 18:00:00 TS 14.2359 94.2249 main 180 170 _________OP___ -1 14.3000 94.0000 TC 39 14.1719 94.4498 2 7 284
1932293N14096 1932 66 NI BB NOT_NAMED 1932-10-19 21:00:00 TS 14.3194 93.8907 main 176 169 _________PP___ -1 14.3847 93.6798 TC 42 14.2540 94.1017 2 7 286
1932293N14096 1932 66 NI BB NOT_NAMED 1932-10-20 00:00:00 TS 14.4296 93.5139 main 184 180 _________OP___ -1 14.5000 93.3000 TC 45 14.3592 93.7277 2 9 288
1932293N14096 1932 66 NI BB NOT_NAMED 1932-10-20 03:00:00 TS 14.5888 93.0150 main 201 201 _________PO___ -1 14.6777 92.7300 TC 45 14.5000 93.3000 3 11 290
1932293N14096 1932 66 NI BB NOT_NAMED 1932-10-20 06:00:00 TS 14.7987 92.4394 main 235 235 _________OP___ -1 14.9000 92.1000 TC 45 14.6974 92.7789 3 12 292
1932293N14096 1932 66 NI BB NOT_NAMED 1932-10-20 09:00:00 TS 15.0388 91.8728 main 270 270 _________PP___ -1 15.1498 91.5425 TC 45 14.9278 92.2030 3 12 294
1932293N14096 1932 66 NI BB NOT_NAMED 1932-10-20 12:00:00 TS 15.2846 91.3003 main 320 320 _________OP___ -1 15.4000 91.0000 TC 45 15.1692 91.6006 3 12 293
1932293N14096 1932 66 NI BB NOT_NAMED 1932-10-20 15:00:00 TS 15.5074 90.7250 main 378 378 _________PO___ -1 15.6149 90.4499 TC 45 15.4000 91.0000 3 12 290
1932293N14096 1932 66 NI BB NOT_NAMED 1932-10-20 18:00:00 TS 15.6841 90.1810 main 429 429 _________OP___ -1 15.8000 89.9000 TC 45 15.5682 90.4620 3 11 287
1932293N14096 1932 66 NI BB NOT_NAMED 1932-10-20 21:00:00 TS 15.8305 89.6502 main 481 481 _________PP___ -1 15.9347 89.3721 TC 45 15.7262 89.9283 3 11 287
1932293N14096 1932 66 NI BB NOT_NAMED 1932-10-21 00:00:00 TS 15.9981 89.0903 main 530 479 _________OP___ -1 16.1000 88.8000 TC 45 15.8962 89.3806 3 12 290
1932293N14096 1932 66 NI BB NOT_NAMED 1932-10-21 03:00:00 TS 16.2388 88.4576 main 479 418 _________PO___ -1 16.3776 88.1151 TC 45 16.1000 88.8000 3 14 293
1932293N14096 1932 66 NI BB NOT_NAMED 1932-10-21 06:00:00 TS 16.5281 87.7744 main 418 346 _________OP___ -1 16.7000 87.4000 TC 45 16.3561 88.1488 3 14 294
1932293N14096 1932 66 NI BB NOT_NAMED 1932-10-21 09:00:00 TS 16.8237 87.1036 main 346 276 _________PP___ -1 16.9997 86.7423 TC 45 16.6478 87.4650 3 14 295
1932293N14096 1932 66 NI BB NOT_NAMED 1932-10-21 12:00:00 TS 17.1327 86.4368 main 269 199 _________OP___ -1 17.3000 86.1000 TC 45 16.9655 86.7736 3 14 296
1932293N14096 1932 66 NI BB NOT_NAMED 1932-10-21 15:00:00 TS 17.4425 85.7674 main 199 123 _________PO___ -1 17.5849 85.4347 TC 41 17.3000 86.1000 3 14 296
1932293N14096 1932 66 NI BB NOT_NAMED 1932-10-21 18:00:00 TS 17.7660 85.1009 main 115 47 _________OP___ -1 17.9000 84.8000 TC 37 17.6319 85.4018 3 14 299
1932293N14096 1932 66 NI BB NOT_NAMED 1932-10-21 21:00:00 TS 18.1354 84.4594 main 47 0 _________PP___ -1 18.2925 84.1827 TC 33 17.9782 84.7360 3 13 304
1932293N14096 1932 66 NI BB NOT_NAMED 1932-10-22 00:00:00 TS 18.5176 83.9260 main 0 0 _________OP___ -1 18.7000 83.7000 TC 30 18.3352 84.1520 3 11 311
1932293N14096 1932 66 NI BB NOT_NAMED 1932-10-22 03:00:00 TS 18.8749 83.5623 main 0 0 _________PO___ -1 19.0497 83.4247 TC 30 18.7000 83.7000 1 9 323
1932293N14096 1932 66 NI BB NOT_NAMED 1932-10-22 06:00:00 TS 19.2353 83.3505 main 0 0 _________OP___ -1 19.4000 83.3000 TC 30 19.0707 83.4010 1 8 337
1932293N14096 1932 66 NI BB NOT_NAMED 1932-10-22 09:00:00 TS 19.6243 83.2258 main 0 0 _________PP___ -1 19.8000 83.2124 TC 30 19.4486 83.2391 1 8 349
1932293N14096 1932 66 NI BB NOT_NAMED 1932-10-22 12:00:00 TS 20.0137 83.1913 main 0 0 _________OP___ -1 20.2000 83.2000 TC 30 19.8273 83.1826 1 8 358
1932293N14096 1932 66 NI BB NOT_NAMED 1932-10-22 15:00:00 TS 20.3787 83.2100 main 0 0 _________PO___ -1 20.5575 83.2200 TC 30 20.2000 83.2000 1 7 6
1932293N14096 1932 66 NI BB NOT_NAMED 1932-10-22 18:00:00 TS 20.7387 83.2593 main 0 0 _________OP___ -1 20.9000 83.3000 TC 30 20.5774 83.2186 1 7 11
1932293N14096 1932 66 NI BB NOT_NAMED 1932-10-22 21:00:00 TS 21.1049 83.3647 main 0 0 _________PP___ -1 21.2650 83.4275 TC 30 20.9448 83.3019 1 8 19
1932293N14096 1932 66 NI BB NOT_NAMED 1932-10-23 00:00:00 TS 21.4449 83.5172 main 0 0 _________OP___ -1 21.6000 83.6000 TC 30 21.2899 83.4344 1 7 26
1932293N14096 1932 66 NI BB NOT_NAMED 1932-10-23 03:00:00 TS 21.7362 83.6963 main 0 0 _________PO___ -1 21.8725 83.7925 TC 30 21.6000 83.6000 1 6 32
1932293N14096 1932 66 NI BB NOT_NAMED 1932-10-23 06:00:00 TS 21.9865 83.8816 main 0 0 _________OP___ -1 22.1000 84.0000 TC 30 21.8731 83.7632 1 6 36
1932293N14096 1932 66 NI BB NOT_NAMED 1932-10-23 09:00:00 TS 22.2124 84.0738 main 0 0 _________PP___ -1 22.3149 84.1926 TC 30 22.1099 83.9551 1 6 42
1932293N14096 1932 66 NI BB NOT_NAMED 1932-10-23 12:00:00 TS 22.4084 84.2847 main 0 0 _________OP___ -1 22.5000 84.4000 TC 30 22.3168 84.1694 1 6 48
1932293N14096 1932 66 NI BB NOT_NAMED 1932-10-23 15:00:00 TS 22.5787 84.5213 main 0 0 _________PO___ -1 22.6575 84.6426 TC 30 22.5000 84.4000 1 5 54
1932293N14096 1932 66 NI BB NOT_NAMED 1932-10-23 18:00:00 TS 22.7231 84.7520 main 0 0 _________OP___ -1 22.8000 84.9000 TC 30 22.6655 84.6411 1 5 56
1932293N14096 1932 66 NI BB NOT_NAMED 1932-10-23 21:00:00 TS 22.8697 84.9948 main 0 0 _________PP___ -1 22.9476 85.1524 TC 30 22.8178 84.8897 1 5 57
1932293N14096 1932 66 NI BB NOT_NAMED 1932-10-24 00:00:00 TS 23.0075 85.2289 main 0 0 _________OP___ -1 23.1000 85.4000 TC 30 22.9613 85.1434 1 4 58
1932293N14096 1932 66 NI BB NOT_NAMED 1932-10-24 03:00:00 NR 23.1000 85.4000 main 0 __________O___ -1 TC 23.1000 85.4000 1 4 59

IBTrACS Databaseについて

本データベースは、米国NOAAが公開する1842年以降の世界の熱帯低気圧のベストトラックデータアーカイブInternational Best Track Archive for Climate Stewardship (IBTrACS)を、ウェブで閲覧しやすい形式に変換したものです。

最終更新日:2021-11-26